createdAt,value
2024-01-28T00:00:00.270Z,3.68
2024-01-28T00:02:28.230Z,3.68
2024-01-28T00:04:56.063Z,3.68
2024-01-28T00:07:23.725Z,3.68
2024-01-28T00:09:51.332Z,3.67
2024-01-28T00:12:19.202Z,3.65
2024-01-28T00:14:46.808Z,3.67
2024-01-28T00:17:14.789Z,3.67
2024-01-28T00:19:42.521Z,3.67
2024-01-28T00:22:10.316Z,3.66
2024-01-28T00:24:37.890Z,3.66
2024-01-28T00:27:05.662Z,3.64
2024-01-28T00:29:33.188Z,3.64
2024-01-28T00:32:00.861Z,3.65
2024-01-28T00:34:28.587Z,3.67
2024-01-28T00:36:56.461Z,3.67
2024-01-28T00:39:24.562Z,3.67
2024-01-28T00:41:52.113Z,3.66
2024-01-28T00:44:19.769Z,3.64
2024-01-28T00:46:47.433Z,3.64
2024-01-28T00:49:15.230Z,3.66
2024-01-28T00:51:43.079Z,3.67
2024-01-28T00:54:10.939Z,3.68
2024-01-28T00:56:38.486Z,3.69
2024-01-28T00:59:06.354Z,3.70
2024-01-28T01:01:34.046Z,3.70
2024-01-28T01:04:01.919Z,3.68
2024-01-28T01:06:29.740Z,3.68
2024-01-28T01:08:57.608Z,3.68
2024-01-28T01:11:25.373Z,3.69
2024-01-28T01:13:53.032Z,3.70
2024-01-28T01:16:20.697Z,3.70
2024-01-28T01:18:48.789Z,3.70
2024-01-28T01:21:16.475Z,3.68
2024-01-28T01:23:44.346Z,3.67
2024-01-28T01:26:11.958Z,3.64
2024-01-28T01:28:39.711Z,3.64
2024-01-28T01:31:07.276Z,3.64
2024-01-28T01:33:35.067Z,3.65
2024-01-28T01:36:03.062Z,3.67
2024-01-28T01:38:31.289Z,3.68
2024-01-28T01:40:58.942Z,3.67
2024-01-28T01:43:26.637Z,3.65
2024-01-28T01:45:54.155Z,3.63
2024-01-28T01:48:21.954Z,3.61
2024-01-28T01:50:49.703Z,3.60
2024-01-28T01:53:17.153Z,3.59
2024-01-28T01:55:44.809Z,3.60
2024-01-28T01:58:12.468Z,3.61
2024-01-28T02:00:40.261Z,3.62
2024-01-28T02:03:08.362Z,3.62
2024-01-28T02:05:36.099Z,3.61
2024-01-28T02:08:03.726Z,3.60
2024-01-28T02:10:31.386Z,3.58
2024-01-28T02:12:58.950Z,3.58
2024-01-28T02:15:26.536Z,3.58
2024-01-28T02:17:54.378Z,3.58
2024-01-28T02:20:22.270Z,3.60
2024-01-28T02:22:50.115Z,3.60
2024-01-28T02:25:17.670Z,3.60
2024-01-28T02:27:45.373Z,3.59
2024-01-28T02:30:13.066Z,3.57
2024-01-28T02:32:40.916Z,3.57
2024-01-28T02:35:08.725Z,3.57
2024-01-28T02:37:36.381Z,3.58
2024-01-28T02:40:04.048Z,3.59
2024-01-28T02:42:31.650Z,3.60
2024-01-28T02:44:59.162Z,3.59
2024-01-28T02:47:26.859Z,3.58
2024-01-28T02:49:54.748Z,3.56
2024-01-28T02:52:22.446Z,3.55
2024-01-28T02:54:50.164Z,3.56
2024-01-28T02:57:17.908Z,3.56
2024-01-28T02:59:45.655Z,3.56
2024-01-28T03:02:13.321Z,3.55
2024-01-28T03:04:40.936Z,3.53
2024-01-28T03:07:08.779Z,3.51
2024-01-28T03:09:36.639Z,3.51
2024-01-28T03:12:04.610Z,3.51
2024-01-28T03:14:32.329Z,3.52
2024-01-28T03:16:59.923Z,3.52
2024-01-28T03:19:27.582Z,3.53
2024-01-28T03:21:55.246Z,3.53
2024-01-28T03:24:24.207Z,3.53
2024-01-28T03:26:51.966Z,3.53
2024-01-28T03:29:19.722Z,3.53
2024-01-28T03:31:47.288Z,3.51
2024-01-28T03:34:15.254Z,3.51
2024-01-28T03:36:43.029Z,3.50
2024-01-28T03:39:10.610Z,3.50
2024-01-28T03:41:38.239Z,3.47
2024-01-28T03:44:06.309Z,3.45
2024-01-28T03:46:33.862Z,3.42
2024-01-28T03:49:01.717Z,3.40
2024-01-28T03:51:29.854Z,3.40
2024-01-28T03:53:57.570Z,3.38
2024-01-28T03:56:25.122Z,3.38
2024-01-28T03:58:52.682Z,3.37
2024-01-28T04:01:20.333Z,3.35
2024-01-28T04:03:48.434Z,3.34
2024-01-28T04:06:16.133Z,3.34
2024-01-28T04:08:43.949Z,3.34
2024-01-28T04:11:11.499Z,3.33
2024-01-28T04:13:39.065Z,3.32
2024-01-28T04:16:08.459Z,3.30
2024-01-28T04:18:37.895Z,3.27
2024-01-28T04:21:05.760Z,3.25
2024-01-28T04:23:33.491Z,3.24
2024-01-28T04:26:01.376Z,3.23
2024-01-28T04:28:29.029Z,3.22
2024-01-28T04:30:56.710Z,3.21
2024-01-28T04:33:24.242Z,3.19
2024-01-28T04:35:52.209Z,3.18
2024-01-28T04:38:19.770Z,3.17
2024-01-28T04:40:47.346Z,3.16
2024-01-28T04:43:14.698Z,3.16
2024-01-28T04:45:42.267Z,3.17
2024-01-28T04:48:10.236Z,3.16
2024-01-28T04:50:38.301Z,3.14
2024-01-28T04:53:05.836Z,3.12
2024-01-28T04:55:33.511Z,3.10
2024-01-28T04:58:01.065Z,3.07
2024-01-28T05:00:28.740Z,3.05
2024-01-28T05:02:56.494Z,3.03
2024-01-28T05:05:24.265Z,3.04
2024-01-28T05:07:51.822Z,3.02
2024-01-28T05:10:19.370Z,3.00
2024-01-28T05:12:47.403Z,3.00
2024-01-28T05:15:15.239Z,3.01
2024-01-28T05:17:42.871Z,3.03
2024-01-28T05:20:10.535Z,3.04
2024-01-28T05:22:38.114Z,3.04
2024-01-28T05:25:05.773Z,3.02
2024-01-28T05:27:33.450Z,3.01
2024-01-28T05:30:01.091Z,3.01
2024-01-28T05:32:28.905Z,3.03
2024-01-28T05:34:56.709Z,3.05
2024-01-28T05:37:24.367Z,3.07
2024-01-28T05:39:52.034Z,3.08
2024-01-28T05:42:19.713Z,3.08
2024-01-28T05:44:47.544Z,3.07
2024-01-28T05:47:15.115Z,3.06
2024-01-28T05:49:42.890Z,3.03
2024-01-28T05:52:10.761Z,3.02
2024-01-28T05:54:38.299Z,3.02
2024-01-28T05:57:06.012Z,3.02
2024-01-28T05:59:33.716Z,3.02
2024-01-28T06:02:01.383Z,3.01
2024-01-28T06:04:29.114Z,3.00
2024-01-28T06:06:56.841Z,2.98
2024-01-28T06:09:24.408Z,2.96
2024-01-28T06:11:51.924Z,2.96
2024-01-28T06:14:19.481Z,2.96
2024-01-28T06:16:47.046Z,2.96
2024-01-28T06:19:14.773Z,2.96
2024-01-28T06:21:42.615Z,2.96
2024-01-28T06:24:10.332Z,2.94
2024-01-28T06:26:37.890Z,2.94
2024-01-28T06:29:05.548Z,2.94
2024-01-28T06:31:33.103Z,2.95
2024-01-28T06:34:01.063Z,2.95
2024-01-28T06:36:28.896Z,2.95
2024-01-28T06:38:56.609Z,2.95
2024-01-28T06:41:24.161Z,2.95
2024-01-28T06:43:51.826Z,2.93
2024-01-28T06:46:19.486Z,2.92
2024-01-28T06:48:47.114Z,2.93
2024-01-28T06:51:14.909Z,2.95
2024-01-28T06:53:42.986Z,2.96
2024-01-28T06:56:10.643Z,2.98
2024-01-28T06:58:38.304Z,2.97
2024-01-28T07:01:05.938Z,2.98
2024-01-28T07:03:33.927Z,2.98
2024-01-28T07:06:01.634Z,2.98
2024-01-28T07:08:29.253Z,2.99
2024-01-28T07:10:56.924Z,3.03
2024-01-28T07:13:24.392Z,3.07
2024-01-28T07:15:52.224Z,3.10
2024-01-28T07:18:20.348Z,3.12
2024-01-28T07:20:47.967Z,3.15
2024-01-28T07:23:15.541Z,3.17
2024-01-28T07:25:43.191Z,3.18
2024-01-28T07:28:10.755Z,3.19
2024-01-28T07:30:38.449Z,3.23
2024-01-28T07:33:06.020Z,3.27
2024-01-28T07:35:33.732Z,3.32
2024-01-28T07:38:01.308Z,3.36
2024-01-28T07:40:28.766Z,3.40
2024-01-28T07:42:56.573Z,3.44
2024-01-28T07:45:24.449Z,3.48
2024-01-28T07:47:52.205Z,3.53
2024-01-28T07:50:19.931Z,3.56
2024-01-28T07:52:47.483Z,3.61
2024-01-28T07:55:15.129Z,3.67
2024-01-28T07:57:42.706Z,3.74
2024-01-28T08:00:10.439Z,3.79
2024-01-28T08:02:38.176Z,3.83
2024-01-28T08:05:05.819Z,3.82
2024-01-28T08:07:33.540Z,3.84
2024-01-28T08:10:01.274Z,3.81
2024-01-28T08:12:28.893Z,3.77
2024-01-28T08:14:56.555Z,3.73
2024-01-28T08:17:24.235Z,3.72
2024-01-28T08:19:51.951Z,3.74
2024-01-28T08:22:19.610Z,3.81
2024-01-28T08:24:47.573Z,3.90
2024-01-28T08:27:15.246Z,4.01
2024-01-28T08:29:42.802Z,4.12
2024-01-28T08:32:10.474Z,4.17
2024-01-28T08:34:38.108Z,4.20
2024-01-28T08:37:05.802Z,4.25
2024-01-28T08:39:33.360Z,4.29
2024-01-28T08:42:01.010Z,4.35
2024-01-28T08:44:28.871Z,4.43
2024-01-28T08:46:56.947Z,4.49
2024-01-28T08:49:24.558Z,4.56
2024-01-28T08:51:52.378Z,4.60
2024-01-28T08:54:20.149Z,4.66
2024-01-28T08:56:47.783Z,4.68
2024-01-28T08:59:15.346Z,4.67
2024-01-28T09:01:42.940Z,4.62
2024-01-28T09:04:10.958Z,4.62
2024-01-28T09:06:38.776Z,4.66
2024-01-28T09:09:06.500Z,4.69
2024-01-28T09:11:34.183Z,4.69
2024-01-28T09:14:01.826Z,4.71
2024-01-28T09:16:29.405Z,4.78
2024-01-28T09:18:57.157Z,4.87
2024-01-28T09:21:24.878Z,4.98
2024-01-28T09:23:52.672Z,5.03
2024-01-28T09:26:20.553Z,5.08
2024-01-28T09:28:48.205Z,5.11
2024-01-28T09:31:15.903Z,5.13
2024-01-28T09:33:43.790Z,5.13
2024-01-28T09:36:11.513Z,5.15
2024-01-28T09:38:41.161Z,5.18
2024-01-28T09:41:10.304Z,5.22
2024-01-28T09:43:37.964Z,5.27
2024-01-28T09:46:05.934Z,5.36
2024-01-28T09:48:33.726Z,5.48
2024-01-28T09:51:01.462Z,5.54
2024-01-28T09:53:29.036Z,5.62
2024-01-28T09:55:56.716Z,5.68
2024-01-28T09:58:24.340Z,5.72
2024-01-28T10:00:51.939Z,5.81
2024-01-28T10:03:19.437Z,5.90
2024-01-28T10:05:47.228Z,6.02
2024-01-28T10:08:15.216Z,6.17
2024-01-28T10:10:42.951Z,6.32
2024-01-28T10:13:10.512Z,6.45
2024-01-28T10:15:38.230Z,6.54
2024-01-28T10:18:06.038Z,6.61
2024-01-28T10:20:33.804Z,6.71
2024-01-28T10:23:01.365Z,6.78
2024-01-28T10:25:29.020Z,6.85
2024-01-28T10:27:56.722Z,6.86
2024-01-28T10:30:24.783Z,6.88
2024-01-28T10:32:52.755Z,6.94
2024-01-28T10:35:20.430Z,7.02
2024-01-28T10:37:48.157Z,7.02
2024-01-28T10:40:15.900Z,7.04
2024-01-28T10:42:43.673Z,7.09
2024-01-28T10:45:11.424Z,7.17
2024-01-28T10:47:39.220Z,7.24
2024-01-28T10:50:06.887Z,7.33
2024-01-28T10:52:34.532Z,7.46
2024-01-28T10:55:02.239Z,7.55
2024-01-28T10:57:30.089Z,7.57
2024-01-28T10:59:57.711Z,7.61
2024-01-28T11:02:25.372Z,7.75
2024-01-28T11:04:52.935Z,7.95
2024-01-28T11:07:20.609Z,8.14
2024-01-28T11:09:48.371Z,8.17
2024-01-28T11:12:16.300Z,8.21
2024-01-28T11:14:44.088Z,8.28
2024-01-28T11:17:11.750Z,8.34
2024-01-28T11:19:39.358Z,8.38
2024-01-28T11:22:07.174Z,8.38
2024-01-28T11:24:34.905Z,8.35
2024-01-28T11:27:02.596Z,8.29
2024-01-28T11:29:30.159Z,8.23
2024-01-28T11:31:57.828Z,8.19
2024-01-28T11:34:26.027Z,8.13
2024-01-28T11:36:54.133Z,8.11
2024-01-28T11:39:21.868Z,8.00
2024-01-28T11:41:49.588Z,7.92
2024-01-28T11:44:17.150Z,7.85
2024-01-28T11:46:44.704Z,7.81
2024-01-28T11:49:12.406Z,7.73
2024-01-28T11:51:40.290Z,7.64
2024-01-28T11:54:07.794Z,7.52
2024-01-28T11:56:35.393Z,7.41
2024-01-28T11:59:03.222Z,7.36
2024-01-28T12:01:30.924Z,7.32
2024-01-28T12:03:58.709Z,7.29
2024-01-28T12:06:26.446Z,7.26
2024-01-28T12:08:54.067Z,7.25
2024-01-28T12:11:21.668Z,7.22
2024-01-28T12:13:49.393Z,7.21
2024-01-28T12:16:17.262Z,7.22
2024-01-28T12:18:44.921Z,7.23
2024-01-28T12:21:12.716Z,7.26
2024-01-28T12:23:40.248Z,7.28
2024-01-28T12:26:07.824Z,7.29
2024-01-28T12:28:35.406Z,7.28
2024-01-28T12:31:03.088Z,7.25
2024-01-28T12:33:31.077Z,7.19
2024-01-28T12:35:58.961Z,7.17
2024-01-28T12:38:27.008Z,7.17
2024-01-28T12:40:54.802Z,7.14
2024-01-28T12:43:22.256Z,7.07
2024-01-28T12:45:49.853Z,6.96
2024-01-28T12:48:17.598Z,6.88
2024-01-28T12:50:45.248Z,6.80
2024-01-28T12:53:12.893Z,6.75
2024-01-28T12:55:40.552Z,6.69
2024-01-28T12:58:08.130Z,6.64
2024-01-28T13:00:35.679Z,6.59
2024-01-28T13:03:03.654Z,6.54
2024-01-28T13:05:31.372Z,6.50
2024-01-28T13:07:59.065Z,6.47
2024-01-28T13:10:26.728Z,6.43
2024-01-28T13:12:54.436Z,6.41
2024-01-28T13:15:22.194Z,6.39
2024-01-28T13:17:49.837Z,6.38
2024-01-28T13:20:17.666Z,6.39
2024-01-28T13:22:46.436Z,6.41
2024-01-28T13:25:14.353Z,6.42
2024-01-28T13:27:42.146Z,6.44
2024-01-28T13:30:09.680Z,6.44
2024-01-28T13:32:37.395Z,6.45
2024-01-28T13:35:05.323Z,6.46
2024-01-28T13:37:33.047Z,6.42
2024-01-28T13:40:00.715Z,6.39
2024-01-28T13:42:28.311Z,6.37
2024-01-28T13:44:55.938Z,6.35
2024-01-28T13:47:23.488Z,6.33
2024-01-28T13:49:51.158Z,6.34
2024-01-28T13:52:18.815Z,6.35
2024-01-28T13:54:46.674Z,6.39
2024-01-28T13:57:14.386Z,6.40
2024-01-28T13:59:42.008Z,6.39
2024-01-28T14:02:09.555Z,6.36
2024-01-28T14:04:37.555Z,6.34
2024-01-28T14:07:05.384Z,6.29
2024-01-28T14:09:33.079Z,6.22
2024-01-28T14:12:00.730Z,6.16
2024-01-28T14:14:28.283Z,6.11
2024-01-28T14:16:56.265Z,6.08
2024-01-28T14:19:24.057Z,6.04
2024-01-28T14:21:51.905Z,6.02
2024-01-28T14:24:19.820Z,5.99
2024-01-28T14:26:47.610Z,5.97
2024-01-28T14:29:15.288Z,5.95
2024-01-28T14:31:42.834Z,5.93
2024-01-28T14:34:10.582Z,5.91
2024-01-28T14:36:38.318Z,5.87
2024-01-28T14:39:06.032Z,5.84
2024-01-28T14:41:33.576Z,5.80
2024-01-28T14:44:01.560Z,5.76
2024-01-28T14:46:29.108Z,5.76
2024-01-28T14:48:56.964Z,5.75
2024-01-28T14:51:24.667Z,5.74
2024-01-28T14:53:52.292Z,5.75
2024-01-28T14:56:19.858Z,5.78
2024-01-28T14:58:47.511Z,5.79
2024-01-28T15:01:15.187Z,6.07
2024-01-28T15:03:42.808Z,6.87
2024-01-28T15:06:10.852Z,7.68
2024-01-28T15:08:38.574Z,8.04
2024-01-28T15:11:06.116Z,8.09
2024-01-28T15:13:33.682Z,8.08
2024-01-28T15:16:01.312Z,8.07
2024-01-28T15:18:29.110Z,7.87
2024-01-28T15:20:56.772Z,7.63
2024-01-28T15:23:24.138Z,7.38
2024-01-28T15:25:51.782Z,7.12
2024-01-28T15:28:25.122Z,6.88
2024-01-28T15:30:55.485Z,6.62
2024-01-28T15:33:24.441Z,6.38
2024-01-28T15:35:52.357Z,6.15
2024-01-28T15:38:19.939Z,5.94
2024-01-28T15:40:47.711Z,5.74
2024-01-28T15:43:15.348Z,5.54
2024-01-28T15:45:42.979Z,5.30
2024-01-28T15:48:10.923Z,5.07
2024-01-28T15:50:38.643Z,4.83
2024-01-28T15:53:06.199Z,4.64
2024-01-28T15:55:34.075Z,4.47
2024-01-28T15:58:01.947Z,4.31
2024-01-28T16:00:29.649Z,4.19
2024-01-28T16:02:57.362Z,4.06
2024-01-28T16:05:25.107Z,3.94
2024-01-28T16:07:52.887Z,3.84
2024-01-28T16:10:20.691Z,3.72
2024-01-28T16:12:48.509Z,3.60
2024-01-28T16:15:16.345Z,3.47
2024-01-28T16:17:44.141Z,3.34
2024-01-28T16:20:11.934Z,3.22
2024-01-28T16:22:39.574Z,3.10
2024-01-28T16:25:07.440Z,3.00
2024-01-28T16:27:35.324Z,2.90
2024-01-28T16:30:03.077Z,2.82
2024-01-28T16:32:30.621Z,2.74
2024-01-28T16:34:58.811Z,2.67
2024-01-28T16:37:26.564Z,2.59
2024-01-28T16:39:54.271Z,2.51
2024-01-28T16:42:22.124Z,2.44
2024-01-28T16:44:49.752Z,2.36
2024-01-28T16:47:17.318Z,2.25
2024-01-28T16:49:45.093Z,2.13
2024-01-28T16:52:12.625Z,2.05
2024-01-28T16:54:40.654Z,2.00
2024-01-28T16:57:08.256Z,1.97
2024-01-28T16:59:35.820Z,1.95
2024-01-28T17:02:03.402Z,1.93
2024-01-28T17:04:31.040Z,1.88
2024-01-28T17:06:59.117Z,1.81
2024-01-28T17:09:26.828Z,1.74
2024-01-28T17:11:54.445Z,1.67
2024-01-28T17:14:22.633Z,1.63
2024-01-28T17:16:50.375Z,1.60
2024-01-28T17:19:18.419Z,1.58
2024-01-28T17:21:46.283Z,1.57
2024-01-28T17:24:14.006Z,1.55
2024-01-28T17:26:41.631Z,1.53
2024-01-28T17:29:09.185Z,1.51
2024-01-28T17:31:36.843Z,1.49
2024-01-28T17:34:04.599Z,1.45
2024-01-28T17:36:32.700Z,1.41
2024-01-28T17:39:00.441Z,1.35
2024-01-28T17:41:28.108Z,1.31
2024-01-28T17:43:55.667Z,1.26
2024-01-28T17:46:23.335Z,1.18
2024-01-28T17:48:51.044Z,1.12
2024-01-28T17:51:18.900Z,1.06
2024-01-28T17:53:46.546Z,1.02
2024-01-28T17:56:14.476Z,0.98
2024-01-28T17:58:42.045Z,0.94
2024-01-28T18:01:10.024Z,0.88
2024-01-28T18:03:37.799Z,0.82
2024-01-28T18:06:05.443Z,0.74
2024-01-28T18:08:33.108Z,0.66
2024-01-28T18:11:00.760Z,0.60
2024-01-28T18:13:28.216Z,0.55
2024-01-28T18:15:55.925Z,0.53
2024-01-28T18:18:23.752Z,0.51
2024-01-28T18:20:51.929Z,0.52
2024-01-28T18:23:19.471Z,0.50
2024-01-28T18:25:47.132Z,0.48
2024-01-28T18:28:14.795Z,0.46
2024-01-28T18:30:42.385Z,0.45
2024-01-28T18:33:10.281Z,0.44
2024-01-28T18:35:37.990Z,0.40
2024-01-28T18:38:05.551Z,0.35
2024-01-28T18:40:32.891Z,0.31
2024-01-28T18:43:00.555Z,0.29
2024-01-28T18:45:28.341Z,0.28
2024-01-28T18:47:56.068Z,0.28
2024-01-28T18:50:23.950Z,0.24
2024-01-28T18:52:51.505Z,0.19
2024-01-28T18:55:19.166Z,0.12
2024-01-28T18:57:47.969Z,0.03
2024-01-28T19:00:16.796Z,-0.03
2024-01-28T19:02:44.546Z,-0.09
2024-01-28T19:05:12.441Z,-0.15
2024-01-28T19:07:40.255Z,-0.20
2024-01-28T19:10:08.261Z,-0.27
2024-01-28T19:12:36.002Z,-0.32
2024-01-28T19:15:03.959Z,-0.37
2024-01-28T19:17:31.535Z,-0.41
2024-01-28T19:19:59.757Z,-0.42
2024-01-28T19:22:27.553Z,-0.43
2024-01-28T19:24:55.528Z,-0.43
2024-01-28T19:27:23.218Z,-0.45
2024-01-28T19:29:50.929Z,-0.48
2024-01-28T19:32:18.653Z,-0.51
2024-01-28T19:34:46.214Z,-0.52
2024-01-28T19:37:13.924Z,-0.51
2024-01-28T19:39:41.630Z,-0.52
2024-01-28T19:42:09.243Z,-0.52
2024-01-28T19:44:37.213Z,-0.53
2024-01-28T19:47:04.769Z,-0.57
2024-01-28T19:49:32.775Z,-0.62
2024-01-28T19:52:00.659Z,-0.64
2024-01-28T19:54:28.494Z,-0.66
2024-01-28T19:56:56.038Z,-0.66
2024-01-28T19:59:24.216Z,-0.64
2024-01-28T20:01:51.842Z,-0.62
2024-01-28T20:04:19.934Z,-0.62
2024-01-28T20:06:47.669Z,-0.65
2024-01-28T20:09:15.440Z,-0.68
2024-01-28T20:11:43.124Z,-0.69
2024-01-28T20:14:10.697Z,-0.70
2024-01-28T20:16:38.342Z,-0.69
2024-01-28T20:19:06.141Z,-0.66
2024-01-28T20:21:34.007Z,-0.62
2024-01-28T20:24:01.634Z,-0.58
2024-01-28T20:26:29.613Z,-0.55
2024-01-28T20:28:57.166Z,-0.53
2024-01-28T20:31:24.789Z,-0.52
2024-01-28T20:33:52.555Z,-0.48
2024-01-28T20:36:21.595Z,-0.43
2024-01-28T20:38:49.150Z,-0.37
2024-01-28T20:41:16.720Z,-0.32
2024-01-28T20:43:44.464Z,-0.27
2024-01-28T20:46:12.446Z,-0.26
2024-01-28T20:48:40.331Z,-0.25
2024-01-28T20:51:07.957Z,-0.25
2024-01-28T20:53:35.419Z,-0.26
2024-01-28T20:56:02.984Z,-0.28
2024-01-28T20:58:30.636Z,-0.31
2024-01-28T21:00:58.377Z,-0.32
2024-01-28T21:03:26.021Z,-0.31
2024-01-28T21:05:53.748Z,-0.28
2024-01-28T21:08:21.493Z,-0.26
2024-01-28T21:10:49.458Z,-0.24
2024-01-28T21:13:17.118Z,-0.23
2024-01-28T21:15:44.851Z,-0.23
2024-01-28T21:18:12.741Z,-0.23
2024-01-28T21:20:40.409Z,-0.22
2024-01-28T21:23:08.085Z,-0.20
2024-01-28T21:25:35.633Z,-0.19
2024-01-28T21:28:03.364Z,-0.18
2024-01-28T21:30:31.079Z,-0.18
2024-01-28T21:32:59.129Z,-0.19
2024-01-28T21:35:26.787Z,-0.21
2024-01-28T21:37:54.663Z,-0.22
2024-01-28T21:40:22.316Z,-0.22
2024-01-28T21:42:49.906Z,-0.20
2024-01-28T21:45:17.769Z,-0.18
2024-01-28T21:47:45.425Z,-0.17
2024-01-28T21:50:13.142Z,-0.17
2024-01-28T21:52:40.820Z,-0.19
2024-01-28T21:55:08.855Z,-0.20
2024-01-28T21:57:36.687Z,-0.19
2024-01-28T22:00:04.429Z,-0.18
2024-01-28T22:02:31.981Z,-0.18
2024-01-28T22:04:59.630Z,-0.18
2024-01-28T22:07:27.431Z,-0.20
2024-01-28T22:09:55.298Z,-0.21
2024-01-28T22:12:22.874Z,-0.22
2024-01-28T22:14:50.906Z,-0.22
2024-01-28T22:17:18.862Z,-0.22
2024-01-28T22:19:46.577Z,-0.20
2024-01-28T22:22:14.284Z,-0.20
2024-01-28T22:24:41.976Z,-0.22
2024-01-28T22:27:09.818Z,-0.24
2024-01-28T22:29:37.471Z,-0.27
2024-01-28T22:32:05.340Z,-0.29
2024-01-28T22:34:33.074Z,-0.30
2024-01-28T22:37:01.230Z,-0.30
2024-01-28T22:39:28.983Z,-0.31
2024-01-28T22:41:56.601Z,-0.35
2024-01-28T22:44:24.264Z,-0.39
2024-01-28T22:46:51.822Z,-0.45
2024-01-28T22:49:19.517Z,-0.51
2024-01-28T22:51:47.439Z,-0.54
2024-01-28T22:54:15.115Z,-0.57
2024-01-28T22:56:42.978Z,-0.60
2024-01-28T22:59:10.538Z,-0.63
2024-01-28T23:01:38.254Z,-0.68
2024-01-28T23:04:06.075Z,-0.72
2024-01-28T23:06:33.979Z,-0.76
2024-01-28T23:09:01.485Z,-0.79
2024-01-28T23:11:29.053Z,-0.81
2024-01-28T23:13:56.715Z,-0.87
2024-01-28T23:16:25.184Z,-0.92
2024-01-28T23:18:53.042Z,-0.94
2024-01-28T23:21:20.854Z,-0.96
2024-01-28T23:23:48.383Z,-1.00
2024-01-28T23:26:16.054Z,-1.05
2024-01-28T23:28:43.595Z,-1.11
2024-01-28T23:31:11.518Z,-1.17
2024-01-28T23:33:39.593Z,-1.20
2024-01-28T23:36:07.432Z,-1.23
2024-01-28T23:38:35.376Z,-1.27
2024-01-28T23:41:03.145Z,-1.30
2024-01-28T23:43:30.596Z,-1.31
2024-01-28T23:45:58.227Z,-1.31
2024-01-28T23:48:26.038Z,-1.29
2024-01-28T23:50:53.685Z,-1.26
2024-01-28T23:53:21.353Z,-1.25
2024-01-28T23:55:48.897Z,-1.24
2024-01-28T23:58:16.569Z,-1.24
